Weather observations for the past three days for
Golovin, Golovin Airport
Imperial (Metric)
Date Time (akdt) Wind (mph) Vis. (mi.) Weather Sky Cond. Temperature (ºF) Relative Humidity Wind Chill (°F) Heat Index (°F) Pressure Precipitation (in)
Air Dwpt 6 hour altimeter (in) sea level (mb) 1 hr 3 hr 6 hr
Max. Min.
05 22:56 NW 7 10.00 Fair CLR 30 24.1 79% 24 29.96 1014.0
05 21:56 NW 7 10.00 Fair CLR 32 25 35.1 32 75% 26 29.94 1013.5
05 20:56 NW 6 10.00 Fair CLR 33.1 25 72% 28 29.94 1013.3
05 19:56 NW 7 10.00 Fair CLR 35.1 23 61% 30 29.93 1013.2
05 18:56 W 9 10.00 Fair CLR 35.1 25 67% 29 29.92 1012.9
05 17:56 W 12 10.00 Fair CLR 35.1 25 67% 28 29.91 1012.5
05 16:56 W 7 10.00 Fair CLR 35.1 24.1 64% 30 29.91 1012.5
05 15:56 W 10 G 16 10.00 Fair CLR 33.1 23 34 27 66% 26 29.92 1012.6
05 14:56 W 10 10.00 Fair CLR 33.1 24.1 70% 26 29.92 1012.7
05 13:56 W 8 10.00 Fair CLR 33.1 24.1 70% 27 29.92 1012.6
05 12:56 W 7 10.00 Fair CLR 30.9 23 72% 25 29.91 1012.5
05 11:56 W 6 10.00 Fair CLR 30.9 21.9 69% 26 29.91 1012.5
05 10:56 NW 8 10.00 Fair CLR 28.9 21 72% 22 29.91 1012.5
05 09:56 NW 10 10.00 Fair CLR 28 21 28 21 75% 19 29.92 1012.7
05 08:56 NW 12 10.00 Fair CLR 26.1 19.9 78% 16 29.91 1012.4
05 07:56 N 12 10.00 Fair CLR 24.1 19.9 84% 14 29.9 1012.2
05 06:56 N 6 10.00 Fair CLR 21.9 18 85% 15 29.91 1012.3
05 05:56 N 9 10.00 Fair CLR 23 18 81% 14 29.9 1012.0
05 04:56 NW 6 10.00 Fair CLR 24.1 19 81% 18 29.9 1012.1
05 03:56 N 12 10.00 Fair CLR 25 19 34 25 78% 15 29.9 1011.9
05 02:56 N 10 10.00 Fair CLR 26.1 19.9 78% 17 29.9 1012.0
05 01:56 N 9 10.00 Fair CLR 26.1 19.9 78% 18 29.91 1012.5
05 00:56 N 8 10.00 Fair CLR 28 19.9 72% 21 29.91 1012.5
04 23:56 N 9 10.00 Fair CLR 28.9 21.9 75% 21 29.92 1012.8
04 22:56 N 7 10.00 Fair CLR 30.9 21.9 69% 25 29.93 1013.1
04 21:56 N 8 10.00 Fair CLR 34 23 37.9 34 64% 28 29.93 1013.2
04 20:56 N 15 10.00 Fair CLR 36 21.9 57% 27 29.94 1013.5
04 19:56 N 12 G 21 10.00 Mostly Cloudy BKN038 37 23 57% 30 29.95 1013.8
04 18:56 N 13 10.00 Overcast OVC038 36 21.9 57% 28 29.96 1014.0
04 17:56 N 13 G 20 10.00 Overcast OVC038 37 23 57% 30 29.97 1014.4
04 16:56 N 14 G 17 10.00 Overcast OVC036 37 23 57% 29 29.99 1015.3
04 15:56 N 10 10.00 Overcast OVC034 36 24.1 36 28.9 62% 29 30.01 1015.9
04 14:56 N 12 10.00 Overcast OVC032 35.1 24.1 64% 28 30.03 1016.5
04 13:56 W 5 10.00 Overcast OVC032 34 26.1 73% 30 30.06 1017.4
04 12:56 Vrbl 5 10.00 Overcast OVC028 33.1 27 78% 29 30.07 1017.9
04 11:56 W 3 10.00 Overcast OVC023 30.9 27 85% 30.08 1018.3
04 10:56 Vrbl 3 10.00 Overcast OVC021 30 27 88% 30.09 1018.6
04 09:56 S 5 10.00 Overcast FEW014 OVC019 28.9 26.1 28.9 28 89% 25 30.1 1018.8
04 08:56 E 6 10.00 Light Snow OVC013 28.9 26.1 89% 23 30.11 1019.0
04 07:56 Vrbl 3 10.00 Overcast OVC017 28.9 26.1 89% 30.1 1019.0
04 06:56 Calm 8.00 Overcast FEW010 OVC015 28 25 88% 30.11 1019.3
04 05:56 Calm 10.00 Overcast OVC015 28 25 88% 30.12 1019.3
04 04:56 Calm 10.00 Overcast OVC015 28 24.1 85% 30.12 1019.4
04 03:56 Calm 10.00 Overcast OVC015 28 24.1 28.9 28 85% 30.12 1019.6
04 02:56 S 3 10.00 Overcast OVC015 28 24.1 85% 30.13 1019.7
04 01:56 Calm 10.00 Overcast OVC013 28 24.1 85% 30.13 1019.9
04 00:56 Calm 10.00 Overcast OVC013 28 24.1 85% 30.13 1020.0
03 23:56 Calm 10.00 Overcast OVC013 28 24.1 85% 30.13 1019.9
03 22:56 W 5 10.00 Overcast OVC013 28.9 24.1 82% 25 30.13 1019.9
03 21:56 Calm 10.00 Overcast OVC013 28.9 25 30.9 28.9 85% 30.13 1019.9
03 20:56 Vrbl 3 10.00 Overcast OVC013 30 25 82% 30.14 1020.1
03 19:56 S 6 10.00 Overcast OVC015 30 26.1 85% 25 30.14 1020.1
03 18:56 S 8 10.00 Overcast OVC013 30 26.1 85% 23 30.14 1020.2
03 17:56 S 6 10.00 Overcast OVC013 30 25 82% 25 30.14 1020.3
03 16:56 Vrbl 6 10.00 Overcast OVC013 30.9 25 79% 26 30.15 1020.4
03 15:56 Vrbl 3 10.00 Overcast OVC013 30.9 25 30.9 28.9 79% 30.15 1020.4
03 14:56 W 5 10.00 Overcast OVC015 30.9 24.1 76% 27 30.15 1020.4
03 13:56 W 6 10.00 Overcast OVC017 30.9 23 72% 26 30.15 1020.6
03 12:56 W 6 10.00 Overcast OVC017 30 21.9 72% 25 30.15 1020.5
03 11:56 W 6 10.00 Overcast OVC017 28.9 21.9 75% 23 30.14 1020.3
03 10:56 SW 3 10.00 Mostly Cloudy BKN015 30 23 75% 30.13 1019.7
03 09:56 Vrbl 3 10.00 Overcast OVC015 28.9 23 28.9 26.1 78% 30.11 1019.2
03 08:56 Calm 10.00 Overcast OVC015 27 21.9 81% 30.1 1018.7
03 07:56 Vrbl 3 10.00 Overcast OVC015 27 21.9 81% 30.08 1018.3
03 06:56 N 7 10.00 Overcast OVC015 26.1 21.9 84% 19 30.07 1017.9
03 05:56 W 5 10.00 Overcast OVC015 27 23 85% 22 30.06 1017.4
03 04:56 SW 6 10.00 Overcast OVC013 27 24.1 89% 21 30.04 1016.8
03 03:56 W 6 10.00 Overcast OVC013 26.1 23 28 26.1 88% 20 30.02 1016.2
03 02:56 W 8 10.00 Overcast OVC011 26.1 21.9 84% 18 30 1015.4
03 01:56 W 9 10.00 Overcast OVC013 26.1 21.9 84% 18 29.98 1014.7
03 00:56 W 10 G 18 10.00 Overcast OVC015 27 21.9 81% 18 29.95 1013.9
02 23:56 W 13 G 17 10.00 Overcast BKN016 OVC035 27 23 85% 17 29.93 1013.0
Date Time (akdt) Wind (mph) Vis. (mi.) Weather Sky Cond. Air Dwpt Max. Min. Relative Humidity Wind Chill (°F) Heat Index (°F) altimeter (in) sea level (mb) 1 hr 3 hr 6 hr
6 hour
Temperature (ºF) Pressure Precipitation (in)